Time;durP1;ratioP1;P1;durP2;ratioP2;P2;SDS_P1;SDS_P2;PMS_P1;PMS_P2;Temp;Humidity;BMP_temperature;BMP_pressure;BME280_temperature;BME280_humidity;BME280_pressure;Samples;Min_cycle;Max_cycle;Signal;HPM_P1;HPM_P2
2021/05/29 00:00:07;;;;;;;9.68;5.35;;;;;;;11.34;69.96;100707.00;2096396;84;27653;-60
2021/05/29 00:03:10;;;;;;;7.47;5.60;;;;;;;11.30;70.00;100706.28;2067726;85;27696;-60
2021/05/29 00:06:12;;;;;;;7.25;5.50;;;;;;;11.25;70.08;100709.18;2075508;85;31774;-60
2021/05/29 00:09:13;;;;;;;7.62;5.90;;;;;;;11.20;70.23;100709.85;2075481;85;33503;-60
2021/05/29 00:12:15;;;;;;;6.53;5.65;;;;;;;11.16;70.28;100704.70;2096487;84;30309;-60
2021/05/29 00:15:17;;;;;;;9.75;6.55;;;;;;;11.12;70.29;100700.41;2067571;85;27630;-60
2021/05/29 00:18:20;;;;;;;12.10;5.90;;;;;;;11.09;70.35;100706.80;2075490;85;29520;-60
2021/05/29 00:21:21;;;;;;;10.38;5.45;;;;;;;11.06;70.46;100709.61;2075472;85;30933;-60
2021/05/29 00:24:22;;;;;;;6.97;5.92;;;;;;;11.02;70.47;100708.89;2096381;84;33336;-59
2021/05/29 00:27:24;;;;;;;9.18;5.28;;;;;;;11.01;70.49;100711.17;2067536;85;29805;-60
2021/05/29 00:30:26;;;;;;;10.03;5.78;;;;;;;11.00;70.58;100704.55;2075748;85;27621;-60
2021/05/29 00:33:28;;;;;;;7.00;5.22;;;;;;;10.98;70.63;100697.04;2075485;85;29719;-60
2021/05/29 00:36:29;;;;;;;10.45;5.95;;;;;;;10.95;70.62;100700.70;2082757;84;32247;-60
2021/05/29 00:39:30;;;;;;;8.58;6.08;;;;;;;10.93;70.70;100701.24;2078540;85;32672;-60
2021/05/29 00:42:32;;;;;;;9.90;5.75;;;;;;;10.90;70.60;100700.92;2078715;85;29063;-60
2021/05/29 00:45:34;;;;;;;10.00;5.75;;;;;;;10.89;70.62;100706.36;2090978;85;27604;-60
2021/05/29 00:48:37;;;;;;;13.08;6.90;;;;;;;10.86;70.74;100700.64;2102193;84;28837;-60
2021/05/29 00:51:38;;;;;;;8.58;5.97;;;;;;;10.84;70.71;100705.69;2080254;85;32118;-59
2021/05/29 00:54:40;;;;;;;8.55;5.78;;;;;;;10.82;70.82;100696.84;2073074;85;32573;-60
2021/05/29 00:57:46;;;;;;;8.68;5.95;;;;;;;10.79;70.80;100699.20;2080244;85;29680;-60
2021/05/29 01:00:48;;;;;;;9.50;5.87;;;;;;;10.76;70.84;100699.33;2080492;85;27596;-60
2021/05/29 01:03:49;;;;;;;8.65;5.50;;;;;;;10.74;70.91;100702.09;2080372;85;28916;-60
2021/05/29 01:06:50;;;;;;;8.25;6.47;;;;;;;10.73;70.97;100698.11;2080372;85;32096;-60
2021/05/29 01:09:52;;;;;;;10.82;5.95;;;;;;;10.72;71.02;100707.09;2080471;85;33323;-60
2021/05/29 01:12:55;;;;;;;13.93;6.92;;;;;;;10.71;71.05;100709.36;2080373;85;29063;-60
2021/05/29 01:16:02;;;;;;;7.58;5.60;;;;;;;10.69;71.17;100705.42;2080449;85;27569;-60
2021/05/29 01:19:00;;;;;;;8.90;6.55;;;;;;;10.69;71.23;100709.45;2079891;85;29785;-60
2021/05/29 01:22:07;;;;;;;9.08;6.37;;;;;;;10.69;71.20;100709.45;2080372;85;31991;-60
2021/05/29 01:25:37;;;;;;;5.97;5.22;;;;;;;10.68;71.20;100713.51;2080345;85;32930;-60
2021/05/29 01:28:39;;;;;;;8.68;5.87;;;;;;;10.67;71.32;100714.48;2080266;85;29329;-59
2021/05/29 01:31:45;;;;;;;9.18;6.75;;;;;;;10.64;71.35;100708.31;2080443;85;28258;-59
2021/05/29 01:34:45;;;;;;;9.08;5.83;;;;;;;10.63;71.38;100706.56;2080721;84;28709;-60
2021/05/29 01:37:47;;;;;;;11.10;6.25;;;;;;;10.60;71.37;100701.78;2078320;85;31358;-59
2021/05/29 01:40:50;;;;;;;8.75;5.95;;;;;;;10.57;71.34;100704.14;2078055;85;34147;-58
2021/05/29 01:43:52;;;;;;;6.58;5.72;;;;;;;10.54;71.37;100708.77;2078195;85;30035;-58
2021/05/29 01:46:53;;;;;;;10.78;6.33;;;;;;;10.51;71.42;100700.38;2078504;85;27631;-59
2021/05/29 01:49:54;;;;;;;9.78;5.95;;;;;;;10.48;71.46;100700.05;2078330;85;28616;-59
2021/05/29 01:53:00;;;;;;;10.48;6.28;;;;;;;10.47;71.49;100702.33;2078515;85;30722;-59
2021/05/29 01:56:04;;;;;;;11.78;6.90;;;;;;;10.44;71.51;100706.95;2068932;85;32995;-59
2021/05/29 01:59:05;;;;;;;10.88;6.28;;;;;;;10.42;71.53;100711.05;2104040;84;30403;-59
2021/05/29 02:02:07;;;;;;;9.93;6.72;;;;;;;10.40;71.52;100716.05;2091137;85;27717;-59
2021/05/29 02:05:16;;;;;;;9.18;7.00;;;;;;;10.37;71.61;100716.13;2078414;85;28461;-59
2021/05/29 02:08:17;;;;;;;14.03;7.35;;;;;;;10.37;71.67;100725.51;2077310;85;30456;-59
2021/05/29 02:11:18;;;;;;;8.10;6.22;;;;;;;10.34;71.71;100726.52;2078509;85;33511;-59
2021/05/29 02:14:20;;;;;;;9.68;6.30;;;;;;;10.32;71.76;100722.58;2078466;85;29376;-59
2021/05/29 02:17:21;;;;;;;7.87;6.90;;;;;;;10.30;71.73;100714.19;2078350;85;27962;-59
2021/05/29 02:20:47;;;;;;;8.78;6.95;;;;;;;10.26;71.75;100717.47;2078395;85;28346;-59
2021/05/29 02:23:51;;;;;;;7.47;6.12;;;;;;;10.25;71.77;100717.06;2078255;85;32234;-59
2021/05/29 02:26:52;;;;;;;9.73;6.90;;;;;;;10.23;71.80;100724.77;2078325;85;32975;-59
2021/05/29 02:29:55;;;;;;;8.95;6.85;;;;;;;10.21;71.83;100723.95;2078394;85;29188;-59
2021/05/29 02:32:56;;;;;;;9.50;7.15;;;;;;;10.18;71.82;100720.91;2078463;85;27627;-59
2021/05/29 02:36:01;;;;;;;11.70;6.92;;;;;;;10.16;71.93;100721.47;2079784;85;29372;-59
2021/05/29 02:39:05;;;;;;;10.37;6.50;;;;;;;10.14;71.92;100721.52;2017812;88;31747;-59
2021/05/29 02:42:07;;;;;;;12.07;6.90;;;;;;;10.12;71.94;100727.88;2047526;86;33537;-59
2021/05/29 02:45:11;;;;;;;10.72;6.65;;;;;;;10.09;72.01;100726.21;2037058;87;30162;-58
2021/05/29 02:48:14;;;;;;;8.85;6.65;;;;;;;10.08;72.05;100730.27;2014607;88;27671;-59
2021/05/29 02:51:16;;;;;;;8.35;6.50;;;;;;;10.07;72.00;100742.80;2042568;87;29570;-59
2021/05/29 02:54:17;;;;;;;10.35;6.28;;;;;;;10.04;71.96;100737.56;2046080;86;31478;-59
2021/05/29 02:57:19;;;;;;;8.40;6.30;;;;;;;10.04;72.02;100740.23;2047360;86;33474;-59
2021/05/29 03:00:23;;;;;;;10.15;6.72;;;;;;;10.03;72.01;100743.84;2036939;87;29674;-58
2021/05/29 03:03:25;;;;;;;10.88;6.62;;;;;;;10.02;72.04;100742.10;2014643;88;27689;-59
2021/05/29 03:06:26;;;;;;;10.85;6.67;;;;;;;10.02;72.08;100749.65;2042476;87;28651;-58
2021/05/29 03:09:28;;;;;;;8.13;6.17;;;;;;;10.03;72.10;100755.41;2045204;86;32202;-59
2021/05/29 03:12:30;;;;;;;10.08;7.03;;;;;;;10.03;72.07;100752.73;2047477;86;33041;-58
2021/05/29 03:15:31;;;;;;;10.98;6.78;;;;;;;10.06;72.07;100756.22;2035802;87;30362;-62
2021/05/29 03:18:32;;;;;;;11.93;6.92;;;;;;;10.07;72.05;100752.62;2013945;87;27735;-59
2021/05/29 03:21:34;;;;;;;10.48;6.25;;;;;;;10.09;72.09;100758.78;2042251;85;29767;-58
2021/05/29 03:24:36;;;;;;;9.30;6.60;;;;;;;10.10;72.04;100757.38;2046108;86;30726;-59
2021/05/29 03:27:38;;;;;;;9.63;7.17;;;;;;;10.12;72.06;100760.86;2047539;86;33112;-58
2021/05/29 03:30:40;;;;;;;9.50;7.03;;;;;;;10.15;72.08;100757.21;2036965;87;29568;-58
2021/05/29 03:33:42;;;;;;;13.22;7.42;;;;;;;10.19;72.10;100757.47;2014497;88;28326;-58
2021/05/29 03:36:43;;;;;;;9.80;6.92;;;;;;;10.23;72.04;100767.12;2098354;84;29748;-58
2021/05/29 03:39:44;;;;;;;9.35;6.53;;;;;;;10.29;72.03;100766.00;2117731;84;31269;-58
2021/05/29 03:42:46;;;;;;;8.85;6.87;;;;;;;10.32;71.92;100771.23;2095701;84;33613;-58
2021/05/29 03:45:47;;;;;;;12.75;7.15;;;;;;;10.39;71.96;100770.09;2095736;84;29517;-58
2021/05/29 03:48:48;;;;;;;9.03;7.00;;;;;;;10.47;71.79;100768.44;2095944;84;27597;-58
2021/05/29 03:51:50;;;;;;;10.35;6.92;;;;;;;10.56;71.73;100768.52;2100538;84;28971;-58
2021/05/29 03:54:52;;;;;;;8.83;7.22;;;;;;;10.64;71.55;100761.90;2119794;83;32112;-58
2021/05/29 03:57:53;;;;;;;8.28;7.08;;;;;;;10.73;71.37;100770.47;2119507;83;33759;-58
2021/05/29 04:00:55;;;;;;;10.20;6.12;;;;;;;10.83;71.36;100765.59;2117696;83;30440;-59
2021/05/29 04:03:57;;;;;;;9.50;6.60;;;;;;;10.94;71.34;100764.19;2117187;83;28189;-59
2021/05/29 04:07:00;;;;;;;11.45;7.42;;;;;;;11.10;71.23;100768.87;2117514;83;28661;-58
2021/05/29 04:10:03;;;;;;;11.75;6.75;;;;;;;11.20;71.03;100768.85;2118494;82;31094;-59
2021/05/29 04:13:05;;;;;;;11.08;6.80;;;;;;;11.29;70.75;100768.91;2095992;83;32966;-60
2021/05/29 04:16:06;;;;;;;13.05;7.35;;;;;;;11.40;70.64;100763.06;2117812;83;30258;-59
2021/05/29 04:19:07;;;;;;;9.93;7.25;;;;;;;11.50;70.37;100764.86;2094733;84;28246;-59
2021/05/29 04:22:09;;;;;;;9.53;6.78;;;;;;;11.59;70.33;100765.75;2095764;84;28989;-58
2021/05/29 04:25:16;;;;;;;10.18;7.30;;;;;;;11.72;70.04;100765.20;2095573;84;31680;-58
2021/05/29 04:28:17;;;;;;;10.35;7.00;;;;;;;11.81;69.87;100766.98;2095666;84;32948;-58
2021/05/29 04:31:19;;;;;;;12.13;7.53;;;;;;;11.94;69.82;100772.63;2095687;84;29787;-58
2021/05/29 04:34:20;;;;;;;9.03;7.20;;;;;;;12.11;69.51;100778.58;2095686;84;27430;-58
2021/05/29 04:37:21;;;;;;;8.40;6.62;;;;;;;12.28;69.40;100772.36;2095249;84;29734;-58
2021/05/29 04:40:26;;;;;;;10.98;7.50;;;;;;;12.55;69.46;100771.06;2095671;84;31007;-58
2021/05/29 04:43:27;;;;;;;8.60;6.97;;;;;;;12.88;69.05;100772.52;2075676;84;32931;-59
2021/05/29 04:46:30;;;;;;;8.93;6.72;;;;;;;13.38;68.91;100767.23;2095659;84;29402;-58
2021/05/29 04:49:31;;;;;;;8.10;6.10;;;;;;;13.83;68.68;100764.80;2095804;84;27631;-58
2021/05/29 04:52:33;;;;;;;9.53;6.70;;;;;;;14.57;67.98;100767.78;2095695;84;29176;-59
2021/05/29 04:55:34;;;;;;;9.93;5.95;;;;;;;15.03;67.27;100763.73;2095544;84;31318;-59
2021/05/29 04:58:37;;;;;;;7.75;5.87;;;;;;;15.95;66.72;100766.17;2095739;84;33535;-59
2021/05/29 05:01:38;;;;;;;7.90;5.53;;;;;;;16.81;65.47;100770.38;2095756;84;29368;-59
2021/05/29 05:04:40;;;;;;;7.17;5.87;;;;;;;17.84;64.65;100765.97;2095782;84;27588;-59
2021/05/29 05:07:41;;;;;;;8.03;5.90;;;;;;;18.63;62.76;100762.37;2095654;84;28454;-59
2021/05/29 05:10:42;;;;;;;9.45;5.83;;;;;;;18.91;61.31;100762.11;2095614;84;30587;-59
2021/05/29 05:13:44;;;;;;;6.95;5.97;;;;;;;19.01;60.47;100767.22;2096493;84;32725;-59
2021/05/29 05:16:45;;;;;;;6.80;5.78;;;;;;;18.83;59.61;100761.34;2120178;83;30439;-59
2021/05/29 05:19:47;;;;;;;8.43;5.55;;;;;;;18.73;59.26;100764.38;2118100;83;28012;-60
2021/05/29 05:22:48;;;;;;;5.37;4.87;;;;;;;19.23;59.07;100762.31;2117653;84;29860;-60
2021/05/29 05:25:51;;;;;;;8.30;5.78;;;;;;;19.92;58.23;100765.95;2117734;83;31437;-60
2021/05/29 05:28:53;;;;;;;10.40;6.67;;;;;;;20.64;57.11;100768.58;2095350;84;33013;-60
2021/05/29 05:31:54;;;;;;;7.58;5.60;;;;;;;21.14;55.50;100759.45;2095508;84;30370;-59
2021/05/29 05:34:55;;;;;;;9.30;5.70;;;;;;;21.67;54.70;100763.42;2117893;83;27611;-60
2021/05/29 05:37:57;;;;;;;6.30;5.70;;;;;;;22.22;53.99;100759.91;2106788;83;28912;-59
2021/05/29 05:40:58;;;;;;;6.45;5.20;;;;;;;22.78;52.62;100762.97;2100457;84;31752;-60
2021/05/29 05:44:00;;;;;;;8.40;5.53;;;;;;;23.15;51.66;100767.19;2100470;84;34128;-60
2021/05/29 05:47:02;;;;;;;6.37;5.50;;;;;;;23.57;50.33;100767.31;2100623;84;30247;-60
2021/05/29 05:50:06;;;;;;;7.05;6.10;;;;;;;24.01;50.03;100768.56;2100667;84;27544;-60
2021/05/29 05:53:07;;;;;;;6.60;5.87;;;;;;;24.43;49.18;100767.50;2100804;84;29393;-60
2021/05/29 05:56:09;;;;;;;7.20;6.47;;;;;;;24.79;48.61;100762.54;2100703;84;31186;-59
2021/05/29 05:59:10;;;;;;;7.58;5.60;;;;;;;25.07;47.11;100766.52;2100551;84;34050;-60
2021/05/29 06:02:11;;;;;;;8.68;6.30;;;;;;;25.34;46.73;100754.55;2100708;84;29887;-59
2021/05/29 06:05:14;;;;;;;9.20;6.05;;;;;;;25.62;45.53;100764.50;2100516;84;27613;-60
2021/05/29 06:08:16;;;;;;;5.80;5.20;;;;;;;25.89;44.50;100767.55;2100591;84;29604;-60
2021/05/29 06:11:17;;;;;;;6.75;5.85;;;;;;;26.07;43.85;100770.17;2106199;84;31384;-60
2021/05/29 06:20:54;;;;;;;7.62;5.42;;;;;;;27.28;41.54;100779.46;2009446;88;27614;-60
2021/05/29 06:23:55;;;;;;;9.35;5.20;;;;;;;27.21;40.20;100779.30;2009395;88;28990;-61
2021/05/29 06:26:57;;;;;;;6.25;4.80;;;;;;;27.08;39.51;100786.70;2009373;88;31394;-60
2021/05/29 06:29:58;;;;;;;5.97;5.30;;;;;;;27.05;39.54;100779.32;2009322;88;32351;-60
2021/05/29 06:33:00;;;;;;;6.90;5.50;;;;;;;26.78;39.17;100775.83;2009361;87;30645;-60
2021/05/29 06:36:03;;;;;;;8.78;5.00;;;;;;;26.46;39.02;100776.15;2009596;87;27766;-60
2021/05/29 06:39:06;;;;;;;8.40;5.28;;;;;;;26.13;38.84;100777.44;2012467;87;28623;-60
2021/05/29 06:42:08;;;;;;;6.97;5.20;;;;;;;25.78;39.28;100784.32;2014610;88;31005;-60
2021/05/29 06:45:10;;;;;;;6.12;5.08;;;;;;;25.67;38.98;100777.23;2042591;87;34015;-60
2021/05/29 06:48:14;;;;;;;8.80;5.45;;;;;;;25.79;39.01;100774.53;2042420;87;29668;-61
2021/05/29 06:51:30;;;;;;;6.10;5.08;;;;;;;26.39;39.15;100771.84;2020997;87;27698;-61
2021/05/29 06:54:28;;;;;;;5.37;4.87;;;;;;;27.03;38.67;100764.34;2075145;85;28623;-61
2021/05/29 07:00:43;;;;;;;5.67;4.97;;;;;;;27.41;36.77;100770.14;2075582;85;34083;-61
2021/05/29 07:03:47;;;;;;;8.60;5.17;;;;;;;27.07;36.41;100755.23;2082454;85;30076;-60
2021/05/29 07:06:49;;;;;;;5.37;4.87;;;;;;;26.86;36.94;100765.39;2056296;85;27570;-60
2021/05/29 07:09:53;;;;;;;7.53;5.30;;;;;;;26.42;36.59;100766.52;2082535;85;29925;-60
2021/05/29 07:13:07;;;;;;;5.90;4.58;;;;;;;25.80;36.73;100774.05;2075709;85;31389;-60
2021/05/29 07:16:17;;;;;;;6.70;4.50;;;;;;;25.34;36.96;100775.11;2082680;84;33594;-60
2021/05/29 07:19:22;;;;;;;9.68;5.12;;;;;;;24.72;37.09;100776.55;2075582;85;30047;-60
2021/05/29 07:22:27;;;;;;;5.30;4.80;;;;;;;24.15;37.04;100783.63;2082641;85;28247;-60
2021/05/29 07:25:33;;;;;;;5.58;4.10;;;;;;;23.55;37.49;100783.01;2075077;85;29466;-60
2021/05/29 07:28:39;;;;;;;6.08;4.45;;;;;;;23.08;37.58;100787.90;2082019;85;31669;-59
2021/05/29 07:31:45;;;;;;;4.05;3.65;;;;;;;22.50;38.25;100783.31;2075226;85;33851;-60
2021/05/29 07:34:48;;;;;;;5.30;3.77;;;;;;;21.98;38.68;100782.48;2082275;85;29340;-60
2021/05/29 07:37:53;;;;;;;5.70;5.10;;;;;;;21.60;39.38;100784.49;2083310;84;27839;-60
2021/05/29 07:40:55;;;;;;;5.62;4.17;;;;;;;21.18;39.67;100777.27;2080852;85;29666;-59
2021/05/29 07:43:56;;;;;;;6.20;4.72;;;;;;;20.76;39.90;100780.84;2080856;85;31518;-60
2021/05/29 07:46:58;;;;;;;6.97;4.47;;;;;;;20.43;40.69;100783.52;2095635;84;32423;-58
2021/05/29 07:49:59;;;;;;;9.93;5.35;;;;;;;20.16;41.25;100786.67;2095663;84;29361;-59
2021/05/29 07:53:04;;;;;;;7.15;5.00;;;;;;;20.00;42.25;100785.22;2095785;84;27675;-60
2021/05/29 07:56:13;;;;;;;4.72;4.22;;;;;;;19.99;42.46;100784.84;2095910;84;29781;-59
2021/05/29 07:59:17;;;;;;;2.55;2.35;;;;;;;20.10;42.18;100783.97;2094125;84;31385;-59
2021/05/29 08:02:17;;;;;;;4.28;3.27;;;;;;;20.24;42.09;100780.11;2080377;85;34016;-59
2021/05/29 08:05:20;;;;;;;6.97;3.17;;;;;;;20.46;41.65;100782.37;2080708;84;30269;-59
2021/05/29 08:08:25;;;;;;;4.72;3.42;;;;;;;20.71;41.53;100779.81;2095808;84;27646;-59
2021/05/29 08:11:26;;;;;;;5.22;2.60;;;;;;;20.83;41.10;100782.53;2095853;84;28625;-59
2021/05/29 08:14:27;;;;;;;3.58;2.90;;;;;;;20.88;40.87;100784.34;2095807;84;31353;-59
2021/05/29 08:17:28;;;;;;;3.12;2.50;;;;;;;20.99;40.88;100782.06;2095653;84;34060;-60
2021/05/29 08:20:44;;;;;;;5.92;3.45;;;;;;;21.13;41.26;100774.92;2095758;84;29959;-59
2021/05/29 08:23:46;;;;;;;3.10;2.80;;;;;;;21.17;40.68;100786.44;2095755;84;28166;-59
2021/05/29 08:26:47;;;;;;;6.87;3.25;;;;;;;21.12;40.70;100784.09;2095793;84;28137;-59
2021/05/29 08:29:48;;;;;;;6.20;5.00;;;;;;;21.09;40.85;100781.66;2095708;84;31038;-60
2021/05/29 08:32:50;;;;;;;5.53;4.97;;;;;;;21.05;41.55;100785.63;2095564;84;33636;-60
2021/05/29 08:35:53;;;;;;;5.15;4.62;;;;;;;20.94;41.96;100779.23;2095628;84;27618;-59
2021/05/29 08:38:55;;;;;;;6.35;4.72;;;;;;;20.84;42.02;100782.39;2095727;84;28203;-59
2021/05/29 08:41:57;;;;;;;6.45;4.58;;;;;;;20.82;42.66;100778.08;2096148;84;28748;-60
2021/05/29 08:44:59;;;;;;;5.47;4.42;;;;;;;20.88;42.47;100776.17;2095965;84;30997;-59
2021/05/29 08:48:00;;;;;;;6.72;4.78;;;;;;;20.79;42.34;100780.55;2095824;84;32845;-59
2021/05/29 08:51:14;;;;;;;6.42;4.85;;;;;;;20.62;42.50;100777.37;2095853;84;29408;-59
2021/05/29 08:54:16;;;;;;;7.33;5.50;;;;;;;20.54;42.90;100772.20;2096202;84;27694;-59
2021/05/29 08:57:18;;;;;;;6.67;4.92;;;;;;;20.62;42.94;100777.88;2096251;84;28646;-59
2021/05/29 09:00:27;;;;;;;5.55;4.90;;;;;;;20.71;42.99;100777.09;2095923;84;31611;-59
2021/05/29 09:03:50;;;;;;;8.05;5.25;;;;;;;20.70;42.91;100769.06;2096050;84;33066;-59
2021/05/29 09:06:56;;;;;;;7.30;5.05;;;;;;;20.76;43.13;100780.33;2095784;84;31406;-59
2021/05/29 09:10:17;;;;;;;23.15;16.50;;;;;;;20.61;43.16;100770.70;2120417;83;27632;-59
2021/05/29 09:13:24;;;;;;;10.72;6.80;;;;;;;20.60;43.21;100768.47;2115263;83;28617;-59
2021/05/29 09:16:25;;;;;;;6.97;4.97;;;;;;;20.53;43.52;100776.80;2120278;83;30977;-59
2021/05/29 09:19:27;;;;;;;6.45;4.72;;;;;;;20.53;43.40;100771.36;2120401;83;32996;-60
2021/05/29 09:22:42;;;;;;;7.58;4.95;;;;;;;20.60;43.37;100777.14;2120222;83;29410;-60
2021/05/29 09:25:56;;;;;;;8.45;5.25;;;;;;;20.62;43.41;100774.65;2096111;83;27979;-60
2021/05/29 09:28:59;;;;;;;6.55;4.72;;;;;;;20.60;43.42;100778.50;2120194;83;28168;-61
2021/05/29 09:32:08;;;;;;;6.50;4.53;;;;;;;20.49;43.51;100777.56;2093938;83;31056;-60
2021/05/29 09:35:12;;;;;;;10.70;5.78;;;;;;;20.39;43.63;100777.10;2120222;83;35070;-60
2021/05/29 09:38:15;;;;;;;5.40;4.80;;;;;;;20.33;43.42;100780.70;2116990;83;29329;-60
2021/05/29 09:41:25;;;;;;;13.60;8.25;;;;;;;20.34;43.74;100779.70;2096362;84;27644;-60
2021/05/29 09:44:29;;;;;;;9.25;5.50;;;;;;;20.47;43.80;100784.11;2106550;84;28621;-60
2021/05/29 09:47:30;;;;;;;5.47;4.70;;;;;;;20.47;43.52;100775.95;2096370;84;31067;-60
2021/05/29 09:50:33;;;;;;;6.00;3.98;;;;;;;20.51;43.86;100778.78;2106457;84;34103;-60
2021/05/29 09:53:48;;;;;;;5.72;4.22;;;;;;;20.75;43.83;100771.78;2096300;84;30434;-60
2021/05/29 09:57:02;;;;;;;5.00;4.50;;;;;;;21.04;43.59;100763.47;2105773;84;27565;-60
2021/05/29 10:00:07;;;;;;;8.30;5.37;;;;;;;21.30;42.99;100769.37;2096333;84;29387;-59
2021/05/29 10:03:10;;;;;;;5.30;3.87;;;;;;;21.39;42.79;100764.46;2106382;84;31712;-61
2021/05/29 10:06:14;;;;;;;6.03;3.77;;;;;;;21.39;42.55;100760.38;2096110;84;33112;-60
2021/05/29 10:09:15;;;;;;;9.00;6.60;;;;;;;21.10;42.31;100769.73;2106373;84;29306;-60
2021/05/29 10:12:18;;;;;;;25.97;8.83;;;;;;;21.10;42.31;100769.73;2096010;84;27649;-60
2021/05/29 10:15:21;;;;;;;9.70;5.55;;;;;;;20.91;42.37;100771.83;2106413;84;28578;-60
2021/05/29 10:18:23;;;;;;;12.37;5.67;;;;;;;20.76;42.62;100775.39;2096364;84;30899;-60
2021/05/29 10:21:30;;;;;;;23.02;8.80;;;;;;;20.72;43.49;100769.28;2106502;84;34104;-60
2021/05/29 10:24:31;;;;;;;68.52;12.37;;;;;;;20.63;43.08;100773.66;2096363;84;29332;-60
2021/05/29 10:27:36;;;;;;;16.73;5.53;;;;;;;20.51;43.46;100762.45;2080927;85;27625;-60
2021/05/29 10:30:38;;;;;;;6.00;3.90;;;;;;;20.46;43.72;100757.41;2106727;84;28501;-60
2021/05/29 10:33:42;;;;;;;7.03;4.70;;;;;;;20.51;43.29;100755.65;2095857;84;32121;-60
2021/05/29 10:36:54;;;;;;;4.70;3.37;;;;;;;20.48;43.30;100754.55;2106600;84;33791;-60
2021/05/29 10:40:17;;;;;;;3.92;3.27;;;;;;;20.60;42.90;100754.01;2097591;84;29410;-60
2021/05/29 10:43:22;;;;;;;5.05;4.30;;;;;;;20.68;43.22;100756.08;2120553;83;27707;-60
2021/05/29 10:46:24;;;;;;;5.33;4.35;;;;;;;20.90;43.73;100758.73;2120345;83;28829;-60
2021/05/29 10:49:52;;;;;;;5.08;4.20;;;;;;;21.07;43.74;100754.53;2120160;83;31012;-60
2021/05/29 10:52:54;;;;;;;5.25;4.40;;;;;;;21.15;43.42;100751.64;2120417;83;34088;-59
2021/05/29 10:56:22;;;;;;;6.25;4.40;;;;;;;21.21;43.44;100751.09;2120335;83;29792;-59
2021/05/29 10:59:37;;;;;;;5.97;4.20;;;;;;;21.29;43.41;100752.66;2119523;83;27931;-59
2021/05/29 11:02:40;;;;;;;7.62;4.33;;;;;;;21.37;43.33;100747.89;2120403;83;28634;-59
2021/05/29 11:05:48;;;;;;;7.92;4.70;;;;;;;21.48;43.56;100742.85;2120244;83;32155;-59
2021/05/29 11:08:52;;;;;;;7.70;4.78;;;;;;;21.42;43.35;100735.20;2118887;83;33027;-59
2021/05/29 11:11:55;;;;;;;;;;;;;;;21.33;42.92;100728.71;2122979;82;29384;-59
2021/05/29 11:15:00;;;;;;;10.50;3.92;;;;;;;21.13;43.03;100721.79;2082956;85;37075;-59
2021/05/29 11:18:10;;;;;;;5.15;3.20;;;;;;;21.10;43.48;100723.41;2120509;83;28321;-59
2021/05/29 11:21:12;;;;;;;4.37;3.15;;;;;;;21.15;42.53;100721.67;2120258;83;31021;-60
2021/05/29 11:24:19;;;;;;;3.60;2.77;;;;;;;21.16;42.32;100721.52;2120336;83;33157;-59
2021/05/29 11:27:25;;;;;;;6.85;2.42;;;;;;;21.03;41.82;100721.73;2120418;83;29366;-59
2021/05/29 11:30:33;;;;;;;4.47;3.17;;;;;;;20.92;41.46;100721.81;2120390;83;27600;-59
2021/05/29 11:33:31;;;;;;;5.72;2.90;;;;;;;20.77;41.55;100719.91;2119373;83;29672;-59
2021/05/29 11:36:33;;;;;;;5.58;3.25;;;;;;;20.65;42.54;100713.66;2120229;83;32111;-59
2021/05/29 11:39:35;;;;;;;7.65;4.00;;;;;;;20.58;42.62;100715.16;2119080;83;33502;-60
2021/05/29 11:42:51;;;;;;;4.12;2.70;;;;;;;20.57;42.64;100714.31;2117881;84;30354;-59
2021/05/29 11:45:56;;;;;;;;;;;;;;;20.62;42.47;100710.67;2120573;84;27573;-60
2021/05/29 11:49:06;;;;;;;3.87;3.47;;;;;;;20.63;42.20;100713.77;2080783;85;29722;-59
2021/05/29 11:52:09;;;;;;;6.00;2.98;;;;;;;20.64;42.26;100710.56;2116750;83;31473;-59
2021/05/29 11:55:14;;;;;;;3.20;2.25;;;;;;;20.71;42.29;100710.38;2117687;83;32961;-60
2021/05/29 11:58:16;;;;;;;6.47;2.87;;;;;;;20.65;41.19;100712.29;2117720;83;29343;-60
2021/05/29 12:01:21;;;;;;;4.05;2.60;;;;;;;20.55;41.93;100703.16;2117968;83;27649;-59
2021/05/29 12:04:29;;;;;;;3.50;2.22;;;;;;;20.59;41.72;100693.27;2117882;83;29597;-59
2021/05/29 12:07:31;;;;;;;3.45;1.82;;;;;;;20.64;41.03;100703.75;2117845;84;31738;-60
2021/05/29 12:10:52;;;;;;;4.42;2.12;;;;;;;20.73;41.25;100691.20;2117926;84;32835;-60
2021/05/29 12:14:08;;;;;;;2.98;1.70;;;;;;;20.82;40.63;100691.79;2117761;83;30070;-59
2021/05/29 12:17:16;;;;;;;2.37;1.70;;;;;;;20.93;40.31;100689.50;2096271;84;27706;-59
2021/05/29 12:20:18;;;;;;;2.50;2.17;;;;;;;20.91;39.17;100695.09;2117838;83;29348;-59
2021/05/29 12:23:22;;;;;;;2.45;1.98;;;;;;;20.84;39.56;100692.52;2117691;83;32136;-60
2021/05/29 12:26:26;;;;;;;1.77;1.50;;;;;;;20.90;38.67;100693.84;2118109;83;33813;-59
2021/05/29 12:29:28;;;;;;;3.12;1.52;;;;;;;20.75;38.83;100691.46;2117902;83;30022;-59
2021/05/29 12:32:39;;;;;;;3.05;2.10;;;;;;;20.65;38.74;100694.59;2117980;84;27617;-60
2021/05/29 12:35:42;;;;;;;5.30;2.20;;;;;;;20.50;39.04;100695.40;2117776;83;29008;-60
2021/05/29 12:38:58;;;;;;;5.00;2.20;;;;;;;20.38;39.05;100697.81;2117758;84;31537;-59
2021/05/29 12:41:59;;;;;;;2.98;1.72;;;;;;;20.23;38.86;100698.13;2117820;83;34530;-60
2021/05/29 12:45:21;;;;;;;3.33;1.85;;;;;;;20.21;39.16;100689.70;2117940;83;29334;-59
2021/05/29 12:48:23;;;;;;;3.62;1.82;;;;;;;20.26;38.90;100691.07;2117892;84;27657;-60
2021/05/29 12:51:39;;;;;;;1.98;1.85;;;;;;;20.31;38.86;100687.44;2117900;83;29036;-59
2021/05/29 12:54:47;;;;;;;3.20;2.20;;;;;;;20.26;38.46;100698.35;2117878;83;31620;-60
2021/05/29 12:57:49;;;;;;;2.77;2.02;;;;;;;20.20;38.99;100686.14;2118005;83;32994;-59
2021/05/29 13:07:40;;;;;;;4.25;2.65;;;;;;;20.32;39.46;100683.73;2117977;83;29023;-59
2021/05/29 13:10:48;;;;;;;2.25;1.80;;;;;;;20.40;39.10;100687.16;2117122;83;31726;-60
2021/05/29 13:14:02;;;;;;;3.00;2.05;;;;;;;20.38;38.71;100680.98;2117183;83;32966;-60
2021/05/29 13:17:06;;;;;;;3.20;2.00;;;;;;;20.38;38.79;100672.81;2115851;83;29680;-60
2021/05/29 13:20:16;;;;;;;4.25;2.55;;;;;;;20.26;39.04;100661.14;2082650;85;27700;-59
2021/05/29 13:23:18;;;;;;;2.15;2.05;;;;;;;20.19;39.09;100671.65;2082145;85;29493;-60
2021/05/29 13:26:19;;;;;;;3.37;2.40;;;;;;;20.02;39.51;100666.29;2117730;84;31210;-59
2021/05/29 13:29:21;;;;;;;3.95;2.52;;;;;;;19.96;41.07;100653.20;2082555;85;34085;-59
2021/05/29 13:32:25;;;;;;;2.35;2.05;;;;;;;19.96;42.07;100647.75;2082720;85;29710;-60
2021/05/29 13:35:28;;;;;;;4.95;3.83;;;;;;;20.03;41.99;100653.53;2095898;84;28155;-59
2021/05/29 13:38:30;;;;;;;3.87;2.70;;;;;;;20.09;42.24;100657.11;2082665;85;29791;-59
2021/05/29 13:41:34;;;;;;;4.03;2.08;;;;;;;20.16;42.28;100662.89;2084521;85;32179;-60
2021/05/29 13:44:37;;;;;;;3.50;1.98;;;;;;;20.20;41.30;100673.89;2120390;83;34124;-60
2021/05/29 13:47:38;;;;;;;5.85;2.22;;;;;;;20.18;40.19;100674.03;2116612;84;30122;-60
2021/05/29 13:50:40;;;;;;;3.10;1.87;;;;;;;20.07;39.14;100667.77;2116818;84;28224;-60
2021/05/29 13:53:42;;;;;;;4.67;2.00;;;;;;;19.90;39.29;100668.69;2116615;84;28936;-59
2021/05/29 13:56:44;;;;;;;2.27;1.90;;;;;;;19.89;39.63;100656.92;2116673;84;31641;-60
2021/05/29 13:59:47;;;;;;;3.45;1.80;;;;;;;19.87;39.39;100661.63;2116448;84;34200;-59
2021/05/29 14:02:49;;;;;;;2.15;1.80;;;;;;;19.87;39.55;100668.42;2094355;84;29399;-59
2021/05/29 14:05:51;;;;;;;2.17;2.00;;;;;;;19.83;39.72;100671.50;2116973;84;28332;-60
2021/05/29 14:08:53;;;;;;;3.62;1.87;;;;;;;19.82;39.95;100667.93;2117543;83;29384;-59
2021/05/29 14:11:54;;;;;;;2.40;2.05;;;;;;;19.74;39.60;100669.92;2095798;84;31343;-59
2021/05/29 14:14:56;;;;;;;3.37;2.08;;;;;;;19.67;40.07;100671.92;2095763;84;34091;-59
2021/05/29 14:17:59;;;;;;;3.08;2.60;;;;;;;19.56;39.97;100670.08;2095827;84;29502;-59
2021/05/29 14:21:02;;;;;;;4.03;2.98;;;;;;;19.37;40.19;100672.05;2095763;84;27563;-60
2021/05/29 14:24:05;;;;;;;2.90;2.50;;;;;;;19.09;40.46;100662.06;2095677;84;28554;-59
2021/05/29 14:27:07;;;;;;;3.77;2.65;;;;;;;18.95;40.86;100681.67;2095798;84;32136;-59
2021/05/29 14:30:12;;;;;;;5.78;2.72;;;;;;;18.74;41.31;100680.13;2095632;84;34039;-59